createdAt,value
2023-04-29T00:02:38.796Z,19.00
2023-04-29T00:05:14.129Z,12.80
2023-04-29T00:07:49.257Z,20.20
2023-04-29T00:10:19.813Z,16.80
2023-04-29T00:12:53.402Z,14.60
2023-04-29T00:15:24.895Z,18.00
2023-04-29T00:17:58.392Z,13.40
2023-04-29T00:20:29.487Z,10.40
2023-04-29T00:23:01.003Z,15.40
2023-04-29T00:25:31.727Z,15.60
2023-04-29T00:28:03.918Z,12.80
2023-04-29T00:30:41.106Z,14.40
2023-04-29T00:33:11.982Z,22.00
2023-04-29T00:35:43.701Z,16.40
2023-04-29T00:38:12.649Z,16.40
2023-04-29T00:40:48.905Z,11.40
2023-04-29T00:43:18.420Z,14.20
2023-04-29T00:45:52.602Z,10.40
2023-04-29T00:48:27.204Z,15.80
2023-04-29T00:50:58.338Z,16.40
2023-04-29T00:53:32.464Z,12.80
2023-04-29T00:56:05.109Z,18.80
2023-04-29T00:58:35.649Z,19.00
2023-04-29T01:01:12.049Z,15.00
2023-04-29T01:03:42.335Z,16.40
2023-04-29T01:06:19.425Z,12.00
2023-04-29T01:08:53.184Z,16.40
2023-04-29T01:11:32.079Z,8.00
2023-04-29T01:14:04.870Z,12.00
2023-04-29T01:16:45.082Z,18.80
2023-04-29T01:19:23.477Z,15.60
2023-04-29T01:21:54.688Z,18.60
2023-04-29T01:24:29.442Z,17.40
2023-04-29T01:27:09.947Z,20.00
2023-04-29T01:29:46.172Z,24.80
2023-04-29T01:32:20.093Z,22.00
2023-04-29T01:34:53.181Z,18.20
2023-04-29T01:37:32.069Z,23.20
2023-04-29T01:40:11.904Z,29.60
2023-04-29T01:42:49.916Z,22.00
2023-04-29T01:45:19.326Z,22.60
2023-04-29T01:47:53.829Z,23.60
2023-04-29T01:50:23.814Z,27.40
2023-04-29T01:52:56.104Z,20.40
2023-04-29T01:55:38.406Z,18.20
2023-04-29T01:58:19.851Z,28.00
2023-04-29T02:00:49.169Z,27.80
2023-04-29T02:03:26.003Z,25.60
2023-04-29T02:05:57.743Z,27.20
2023-04-29T02:08:29.652Z,32.80
2023-04-29T02:11:02.311Z,31.00
2023-04-29T02:13:35.279Z,28.80
2023-04-29T02:16:13.373Z,18.20
2023-04-29T02:18:53.182Z,21.40
2023-04-29T02:21:24.969Z,29.20
2023-04-29T02:23:56.988Z,28.60
2023-04-29T02:26:29.936Z,33.20
2023-04-29T02:28:59.154Z,35.20
2023-04-29T02:31:35.238Z,33.20
2023-04-29T02:34:05.040Z,27.20
2023-04-29T02:36:34.508Z,24.60
2023-04-29T02:39:07.064Z,31.60
2023-04-29T02:41:37.986Z,28.40
2023-04-29T02:44:07.780Z,29.60
2023-04-29T02:46:42.305Z,24.60
2023-04-29T02:49:13.088Z,30.40
2023-04-29T02:51:50.166Z,25.80
2023-04-29T02:54:25.736Z,30.20
2023-04-29T02:57:00.120Z,32.60
2023-04-29T02:59:30.555Z,31.00
2023-04-29T03:02:01.081Z,30.00
2023-04-29T03:04:42.671Z,20.20
2023-04-29T03:07:17.901Z,27.80
2023-04-29T03:09:52.546Z,29.20
2023-04-29T03:12:25.727Z,27.40
2023-04-29T03:14:59.901Z,24.00
2023-04-29T03:17:33.849Z,35.60
2023-04-29T03:20:05.776Z,24.20
2023-04-29T03:22:37.562Z,15.60
2023-04-29T03:25:07.482Z,25.20
2023-04-29T03:27:38.258Z,25.80
2023-04-29T03:30:08.488Z,22.00
2023-04-29T03:32:39.087Z,32.00
2023-04-29T03:35:09.123Z,14.00
2023-04-29T03:37:41.549Z,21.20
2023-04-29T03:40:13.081Z,18.20
2023-04-29T03:42:44.023Z,21.40
2023-04-29T03:45:14.902Z,12.60
2023-04-29T03:47:48.062Z,23.20
2023-04-29T03:50:18.771Z,16.00
2023-04-29T03:52:49.443Z,15.60
2023-04-29T03:55:20.598Z,17.60
2023-04-29T03:58:00.540Z,15.20
2023-04-29T04:00:33.239Z,18.40
2023-04-29T04:03:05.872Z,19.00
2023-04-29T04:05:35.561Z,16.60
2023-04-29T04:08:06.959Z,21.00
2023-04-29T04:10:37.520Z,23.60
2023-04-29T04:13:13.100Z,21.20
2023-04-29T04:15:42.831Z,24.40
2023-04-29T04:18:25.116Z,23.20
2023-04-29T04:20:56.316Z,24.00
2023-04-29T04:23:25.530Z,30.00
2023-04-29T04:26:01.379Z,32.40
2023-04-29T04:28:31.972Z,23.40
2023-04-29T04:31:04.235Z,17.40
2023-04-29T04:33:39.186Z,18.20
2023-04-29T04:36:10.349Z,16.80
2023-04-29T04:38:44.223Z,25.40
2023-04-29T04:41:13.070Z,15.40
2023-04-29T04:43:50.274Z,19.20
2023-04-29T04:46:25.297Z,15.20
2023-04-29T04:48:54.492Z,14.60
2023-04-29T04:51:28.300Z,16.20
2023-04-29T04:54:06.428Z,15.20
2023-04-29T04:56:38.198Z,20.40
2023-04-29T04:59:16.160Z,17.60
2023-04-29T05:01:49.413Z,15.20
2023-04-29T05:04:21.641Z,6.60
2023-04-29T05:06:51.536Z,14.00
2023-04-29T05:09:27.286Z,16.60
2023-04-29T05:12:01.058Z,10.80
2023-04-29T05:14:33.409Z,16.60
2023-04-29T05:17:04.838Z,11.00
2023-04-29T05:19:34.371Z,9.40
2023-04-29T05:22:13.732Z,16.00
2023-04-29T05:24:46.142Z,19.00
2023-04-29T05:27:27.155Z,14.60
2023-04-29T05:30:13.553Z,15.00
2023-04-29T05:32:49.606Z,15.80
2023-04-29T05:35:28.167Z,16.80
2023-04-29T05:38:01.792Z,9.40
2023-04-29T05:40:31.279Z,11.40
2023-04-29T05:43:00.750Z,12.20
2023-04-29T05:45:31.477Z,13.40
2023-04-29T05:48:06.320Z,15.80
2023-04-29T05:50:36.785Z,14.80
2023-04-29T05:53:09.649Z,12.60
2023-04-29T05:55:45.873Z,14.00
2023-04-29T05:58:18.034Z,15.00
2023-04-29T06:00:59.889Z,10.00
2023-04-29T06:03:31.049Z,11.60
2023-04-29T06:06:02.576Z,10.80
2023-04-29T06:08:33.666Z,13.60
2023-04-29T06:11:07.224Z,12.20
2023-04-29T06:13:59.232Z,10.20
2023-04-29T06:16:34.881Z,12.00
2023-04-29T06:19:09.595Z,7.60
2023-04-29T06:21:41.960Z,22.00
2023-04-29T06:24:22.529Z,21.20
2023-04-29T06:26:54.953Z,20.60
2023-04-29T06:29:30.040Z,12.00
2023-04-29T06:32:05.693Z,20.60
2023-04-29T06:34:35.345Z,17.20
2023-04-29T06:37:06.219Z,22.40
2023-04-29T06:39:36.712Z,22.80
2023-04-29T06:42:09.591Z,19.00
2023-04-29T06:44:39.455Z,22.40
2023-04-29T06:47:11.506Z,23.40
2023-04-29T06:50:03.146Z,22.00
2023-04-29T06:52:34.900Z,20.20
2023-04-29T06:55:05.897Z,25.00
2023-04-29T06:57:35.487Z,24.80
2023-04-29T07:00:07.369Z,23.20
2023-04-29T07:02:46.138Z,24.60
2023-04-29T07:05:16.425Z,23.60
2023-04-29T07:07:53.286Z,21.60
2023-04-29T07:10:22.213Z,25.00
2023-04-29T07:12:53.348Z,31.20
2023-04-29T07:15:45.696Z,24.20
2023-04-29T07:18:23.302Z,36.80
2023-04-29T07:20:57.091Z,38.40
2023-04-29T07:23:44.786Z,26.40
2023-04-29T07:26:18.793Z,32.80
2023-04-29T07:28:49.901Z,41.40
2023-04-29T07:31:22.431Z,25.80
2023-04-29T07:34:05.574Z,25.60
2023-04-29T07:36:38.809Z,36.60
2023-04-29T07:39:12.733Z,31.00
2023-04-29T07:41:41.873Z,28.20
2023-04-29T07:44:12.769Z,43.40
2023-04-29T07:46:45.593Z,49.00
2023-04-29T07:49:16.108Z,34.60
2023-04-29T07:51:45.664Z,45.00
2023-04-29T07:54:22.779Z,47.00
2023-04-29T07:56:55.403Z,43.00
2023-04-29T07:59:27.627Z,36.00
2023-04-29T08:02:04.466Z,34.60
2023-04-29T08:04:41.881Z,43.00
2023-04-29T08:07:14.714Z,38.60
2023-04-29T08:09:46.318Z,35.40
2023-04-29T08:12:27.456Z,24.00
2023-04-29T08:14:56.687Z,35.00
2023-04-29T08:17:31.077Z,44.80
2023-04-29T08:20:04.843Z,42.40
2023-04-29T08:22:34.133Z,42.40
2023-04-29T08:25:07.214Z,46.40
2023-04-29T08:27:45.814Z,43.20
2023-04-29T08:30:15.382Z,41.60
2023-04-29T08:32:44.710Z,37.80
2023-04-29T08:35:15.653Z,38.40
2023-04-29T08:37:48.133Z,38.80
2023-04-29T08:40:20.066Z,40.40
2023-04-29T08:42:53.149Z,38.20
2023-04-29T08:45:22.222Z,39.20
2023-04-29T08:47:54.048Z,32.60
2023-04-29T08:50:27.558Z,41.00
2023-04-29T08:53:00.637Z,42.40
2023-04-29T08:55:36.128Z,37.40
2023-04-29T08:58:09.318Z,38.80
2023-04-29T09:00:47.415Z,37.80
2023-04-29T09:03:24.770Z,33.80
2023-04-29T09:06:28.238Z,38.60
2023-04-29T09:09:02.832Z,34.40
2023-04-29T09:11:36.021Z,38.20
2023-04-29T09:14:13.450Z,33.20
2023-04-29T09:16:55.073Z,29.00
2023-04-29T09:19:35.281Z,29.20
2023-04-29T09:22:09.268Z,34.40
2023-04-29T09:24:44.982Z,31.60
2023-04-29T09:27:14.391Z,26.40
2023-04-29T09:29:48.703Z,25.40
2023-04-29T09:32:26.052Z,34.60
2023-04-29T09:34:57.442Z,22.80
2023-04-29T09:37:33.714Z,25.80
2023-04-29T09:40:03.464Z,21.00
2023-04-29T09:42:33.701Z,23.20
2023-04-29T09:45:04.622Z,24.20
2023-04-29T09:47:35.383Z,21.60
2023-04-29T09:50:23.166Z,19.00
2023-04-29T09:52:53.686Z,10.80
2023-04-29T09:55:24.610Z,13.60
2023-04-29T09:58:13.055Z,23.60
2023-04-29T10:00:43.972Z,9.00
2023-04-29T10:03:13.455Z,22.00
2023-04-29T10:05:48.222Z,22.40
2023-04-29T10:08:23.599Z,21.00
2023-04-29T10:11:00.510Z,17.20
2023-04-29T10:13:33.174Z,29.40
2023-04-29T10:16:09.681Z,21.20
2023-04-29T10:18:47.964Z,26.20
2023-04-29T10:21:24.963Z,26.80
2023-04-29T10:23:59.611Z,24.80
2023-04-29T10:26:30.736Z,25.60
2023-04-29T10:29:04.767Z,30.60
2023-04-29T10:31:36.082Z,30.40
2023-04-29T10:34:11.621Z,33.00
2023-04-29T10:36:48.939Z,28.80
2023-04-29T10:39:28.833Z,29.20
2023-04-29T10:42:09.808Z,34.80
2023-04-29T10:45:00.781Z,29.40
2023-04-29T10:47:34.284Z,28.40
2023-04-29T10:50:06.029Z,28.40
2023-04-29T10:53:07.357Z,24.00
2023-04-29T10:55:45.972Z,35.80
2023-04-29T10:58:42.639Z,27.80
2023-04-29T11:01:19.138Z,38.80
2023-04-29T11:03:59.144Z,27.00
2023-04-29T11:06:49.919Z,32.40
2023-04-29T11:09:30.144Z,31.40
2023-04-29T11:12:08.095Z,20.60
2023-04-29T11:14:43.446Z,34.80
2023-04-29T11:17:17.220Z,30.00
2023-04-29T11:19:48.930Z,15.00
2023-04-29T11:22:36.207Z,30.80
2023-04-29T11:25:15.156Z,29.40
2023-04-29T11:27:48.228Z,33.00
2023-04-29T11:30:17.544Z,31.00
2023-04-29T11:32:52.346Z,27.60
2023-04-29T11:35:27.335Z,35.80
2023-04-29T11:38:10.417Z,36.00
2023-04-29T11:40:52.513Z,26.20
2023-04-29T11:43:23.535Z,40.40
2023-04-29T11:46:13.958Z,33.20
2023-04-29T11:48:51.854Z,32.20
2023-04-29T11:51:27.492Z,35.60
2023-04-29T11:54:00.464Z,30.80
2023-04-29T11:56:34.481Z,34.80
2023-04-29T11:59:08.542Z,25.80
2023-04-29T12:01:44.799Z,36.20
2023-04-29T12:04:16.772Z,31.00
2023-04-29T12:06:55.457Z,38.20
2023-04-29T12:09:27.743Z,25.60
2023-04-29T12:11:56.979Z,34.60
2023-04-29T12:14:35.002Z,34.80
2023-04-29T12:17:15.899Z,33.60
2023-04-29T12:19:48.771Z,21.20
2023-04-29T12:22:18.383Z,36.60
2023-04-29T12:24:48.025Z,33.00
2023-04-29T12:27:22.370Z,31.40
2023-04-29T12:30:01.544Z,34.80
2023-04-29T12:32:32.482Z,33.60
2023-04-29T12:35:07.731Z,35.20
2023-04-29T12:37:42.287Z,35.80
2023-04-29T12:40:17.230Z,34.40
2023-04-29T12:42:48.095Z,42.20
2023-04-29T12:45:36.419Z,36.20
2023-04-29T12:48:10.062Z,26.60
2023-04-29T12:50:53.561Z,31.60
2023-04-29T12:53:27.881Z,29.40
2023-04-29T12:55:57.795Z,32.80
2023-04-29T12:58:39.412Z,33.00
2023-04-29T13:01:11.658Z,27.40
2023-04-29T13:03:45.459Z,33.20
2023-04-29T13:06:14.941Z,33.00
2023-04-29T13:08:55.400Z,32.20
2023-04-29T13:11:34.767Z,34.80
2023-04-29T13:14:07.505Z,32.40
2023-04-29T13:16:41.719Z,29.20
2023-04-29T13:19:32.217Z,32.20
2023-04-29T13:22:13.778Z,31.40
2023-04-29T13:24:50.808Z,35.40
2023-04-29T13:27:24.165Z,34.40
2023-04-29T13:30:02.132Z,31.80
2023-04-29T13:32:43.896Z,25.20
2023-04-29T13:35:24.015Z,33.60
2023-04-29T13:37:54.039Z,29.60
2023-04-29T13:40:30.869Z,32.20
2023-04-29T13:43:06.248Z,31.40
2023-04-29T13:45:47.932Z,33.80
2023-04-29T13:54:41.331Z,24.60
2023-04-29T14:04:39.671Z,31.80
2023-04-29T14:07:11.563Z,28.80
2023-04-29T14:09:46.812Z,32.00
2023-04-29T14:12:18.262Z,23.20
2023-04-29T14:14:48.844Z,24.80
2023-04-29T14:17:18.155Z,26.60
2023-04-29T14:19:52.413Z,32.00
2023-04-29T14:22:24.183Z,31.60
2023-04-29T14:24:58.863Z,18.00
2023-04-29T14:27:30.626Z,30.40
2023-04-29T14:30:06.351Z,20.40
2023-04-29T14:32:39.732Z,29.20
2023-04-29T14:35:14.165Z,25.80
2023-04-29T14:37:48.077Z,28.00
2023-04-29T14:40:21.491Z,29.60
2023-04-29T14:42:51.811Z,28.20
2023-04-29T14:45:26.632Z,24.40
2023-04-29T14:47:59.487Z,25.80
2023-04-29T14:50:36.958Z,23.40
2023-04-29T14:53:11.033Z,26.60
2023-04-29T14:55:42.923Z,21.00
2023-04-29T14:58:20.155Z,28.00
2023-04-29T15:00:53.946Z,27.40
2023-04-29T15:03:24.969Z,30.20
2023-04-29T15:06:05.110Z,25.20
2023-04-29T15:08:44.155Z,27.60
2023-04-29T15:11:16.066Z,27.00
2023-04-29T15:13:56.373Z,24.40
2023-04-29T15:16:29.029Z,29.00
2023-04-29T15:18:58.526Z,27.80
2023-04-29T15:21:32.992Z,27.80
2023-04-29T15:24:07.105Z,27.00
2023-04-29T15:26:45.990Z,31.80
2023-04-29T15:29:21.645Z,27.20
2023-04-29T15:32:03.148Z,30.20
2023-04-29T15:34:32.205Z,23.40
2023-04-29T15:37:05.728Z,29.80
2023-04-29T15:39:56.889Z,29.20
2023-04-29T15:42:28.540Z,25.20
2023-04-29T15:45:02.506Z,26.20
2023-04-29T15:47:40.551Z,32.00
2023-04-29T15:50:12.743Z,25.00
2023-04-29T15:52:59.295Z,24.60
2023-04-29T15:55:32.263Z,27.60
2023-04-29T15:58:05.461Z,30.40
2023-04-29T16:00:37.563Z,30.20
2023-04-29T16:03:07.064Z,30.20
2023-04-29T16:05:37.345Z,30.40
2023-04-29T16:08:10.690Z,29.20
2023-04-29T16:10:39.921Z,28.40
2023-04-29T16:13:11.941Z,25.80
2023-04-29T16:15:43.234Z,24.20
2023-04-29T16:18:19.675Z,31.40
2023-04-29T16:20:56.203Z,28.20
2023-04-29T16:23:30.579Z,24.60
2023-04-29T16:26:08.112Z,27.60
2023-04-29T16:28:45.678Z,18.80
2023-04-29T16:31:24.115Z,22.00
2023-04-29T16:33:53.882Z,19.80
2023-04-29T16:36:31.090Z,21.80
2023-04-29T16:39:05.104Z,25.00
2023-04-29T16:41:37.500Z,25.80
2023-04-29T16:44:08.461Z,15.80
2023-04-29T16:46:49.289Z,27.20
2023-04-29T16:49:19.263Z,28.60
2023-04-29T16:51:53.878Z,22.80
2023-04-29T16:54:34.178Z,21.80
2023-04-29T16:57:03.521Z,29.20
2023-04-29T16:59:34.068Z,24.80
2023-04-29T17:02:08.117Z,25.80
2023-04-29T17:04:39.218Z,20.60
2023-04-29T17:07:11.159Z,26.80
2023-04-29T17:09:49.391Z,29.20
2023-04-29T17:12:20.293Z,28.80
2023-04-29T17:14:52.905Z,28.20
2023-04-29T17:17:22.358Z,26.20
2023-04-29T17:19:56.610Z,28.20
2023-04-29T17:22:30.674Z,22.80
2023-04-29T17:25:04.097Z,26.60
2023-04-29T17:27:33.267Z,27.80
2023-04-29T17:30:06.616Z,20.60
2023-04-29T17:32:46.715Z,29.60
2023-04-29T17:35:20.282Z,21.20
2023-04-29T17:37:51.162Z,28.80
2023-04-29T17:40:23.838Z,28.40
2023-04-29T17:43:05.364Z,24.40
2023-04-29T17:45:36.058Z,32.40
2023-04-29T17:48:05.440Z,28.40
2023-04-29T17:50:34.990Z,25.60
2023-04-29T17:53:06.317Z,25.60
2023-04-29T17:55:40.396Z,29.60
2023-04-29T17:58:11.578Z,22.40
2023-04-29T18:00:45.277Z,21.80
2023-04-29T18:03:17.133Z,24.40
2023-04-29T18:05:47.846Z,29.60
2023-04-29T18:08:24.037Z,26.60
2023-04-29T18:10:54.750Z,30.20
2023-04-29T18:13:27.295Z,31.40
2023-04-29T18:15:59.315Z,31.20
2023-04-29T18:18:29.310Z,33.20
2023-04-29T18:21:04.730Z,30.60
2023-04-29T18:23:36.386Z,31.40
2023-04-29T18:26:10.166Z,32.60
2023-04-29T18:28:42.581Z,20.80
2023-04-29T18:31:18.892Z,28.80
2023-04-29T18:33:49.402Z,28.80
2023-04-29T18:36:29.300Z,33.20
2023-04-29T18:39:01.632Z,31.80
2023-04-29T18:41:40.914Z,22.80
2023-04-29T18:44:11.556Z,23.60
2023-04-29T18:46:42.205Z,27.80
2023-04-29T18:49:17.397Z,21.60
2023-04-29T18:51:50.154Z,28.80
2023-04-29T18:54:22.652Z,29.60
2023-04-29T18:57:00.664Z,22.00
2023-04-29T18:59:33.142Z,27.60
2023-04-29T19:02:02.820Z,28.20
2023-04-29T19:04:32.123Z,26.00
2023-04-29T19:07:06.307Z,27.00
2023-04-29T19:09:38.549Z,32.00
2023-04-29T19:12:11.198Z,30.80
2023-04-29T19:14:42.668Z,29.40
2023-04-29T19:17:21.322Z,27.00
2023-04-29T19:19:53.447Z,28.60
2023-04-29T19:22:28.923Z,26.40
2023-04-29T19:24:57.860Z,33.80
2023-04-29T19:27:28.218Z,33.40
2023-04-29T19:30:07.957Z,34.40
2023-04-29T19:32:39.438Z,29.20
2023-04-29T19:35:14.058Z,33.40
2023-04-29T19:37:46.818Z,31.00
2023-04-29T19:40:16.389Z,31.40
2023-04-29T19:42:49.180Z,35.00
2023-04-29T19:45:23.632Z,30.40
2023-04-29T19:47:57.867Z,31.80
2023-04-29T19:50:32.490Z,29.20
2023-04-29T19:53:09.348Z,31.00
2023-04-29T19:55:42.031Z,35.40
2023-04-29T19:58:22.334Z,25.60
2023-04-29T20:00:56.651Z,31.40
2023-04-29T20:03:35.149Z,30.80
2023-04-29T20:06:06.341Z,30.20
2023-04-29T20:08:39.655Z,27.40
2023-04-29T20:11:11.800Z,24.40
2023-04-29T20:13:50.574Z,24.00
2023-04-29T20:16:24.057Z,28.80
2023-04-29T20:18:57.375Z,30.40
2023-04-29T20:21:29.532Z,31.20
2023-04-29T20:24:05.947Z,30.60
2023-04-29T20:26:38.523Z,21.80
2023-04-29T20:29:10.395Z,30.80
2023-04-29T20:31:45.846Z,21.80
2023-04-29T20:34:15.131Z,30.40
2023-04-29T20:36:49.232Z,27.80
2023-04-29T20:39:18.415Z,29.20
2023-04-29T20:41:49.699Z,24.20
2023-04-29T20:44:20.463Z,26.20
2023-04-29T20:46:50.379Z,31.80
2023-04-29T20:49:20.781Z,22.20
2023-04-29T20:51:56.302Z,30.00
2023-04-29T20:54:30.563Z,32.40
2023-04-29T20:57:06.382Z,30.80
2023-04-29T20:59:37.019Z,24.80
2023-04-29T21:02:17.107Z,31.00
2023-04-29T21:04:49.159Z,36.00
2023-04-29T21:07:20.064Z,25.60
2023-04-29T21:09:50.639Z,26.60
2023-04-29T21:12:22.779Z,28.00
2023-04-29T21:15:12.532Z,29.40
2023-04-29T21:17:47.915Z,24.20
2023-04-29T21:20:24.513Z,27.80
2023-04-29T21:22:55.578Z,23.60
2023-04-29T21:25:28.400Z,28.00
2023-04-29T21:27:57.631Z,29.00
2023-04-29T21:30:28.355Z,27.40
2023-04-29T21:33:00.373Z,21.80
2023-04-29T21:35:49.738Z,27.60
2023-04-29T21:41:28.109Z,28.80
2023-04-29T21:43:57.286Z,21.40
2023-04-29T21:46:33.544Z,26.60
2023-04-29T21:49:05.778Z,18.20
2023-04-29T21:51:36.274Z,31.80
2023-04-29T21:54:10.374Z,22.20
2023-04-29T21:59:34.784Z,37.80
2023-04-29T22:02:15.292Z,24.00
2023-04-29T22:04:49.076Z,35.00
2023-04-29T22:07:24.145Z,48.00
2023-04-29T22:09:53.518Z,42.50
2023-04-29T22:12:27.071Z,43.20
2023-04-29T22:15:24.488Z,45.80
2023-04-29T22:18:05.449Z,51.00
2023-04-29T22:20:38.429Z,49.20
2023-04-29T22:23:09.835Z,39.80
2023-04-29T22:25:45.609Z,50.20
2023-04-29T22:28:17.284Z,48.60
2023-04-29T22:30:47.926Z,45.00
2023-04-29T22:33:21.628Z,46.60
2023-04-29T22:35:50.921Z,44.20
2023-04-29T22:38:22.279Z,31.00
2023-04-29T22:40:52.087Z,37.80
2023-04-29T22:43:22.803Z,34.20
2023-04-29T22:45:56.408Z,26.40
2023-04-29T22:48:27.866Z,24.40
2023-04-29T22:50:59.054Z,16.80
2023-04-29T22:53:30.753Z,20.20
2023-04-29T22:56:00.972Z,14.60
2023-04-29T22:58:35.954Z,18.20
2023-04-29T23:01:10.689Z,18.00
2023-04-29T23:03:45.902Z,17.80
2023-04-29T23:06:19.237Z,20.20
2023-04-29T23:08:48.438Z,13.80
2023-04-29T23:11:18.356Z,20.40
2023-04-29T23:13:50.577Z,14.00
2023-04-29T23:16:20.199Z,10.40
2023-04-29T23:18:55.417Z,13.00
2023-04-29T23:21:24.337Z,9.20
2023-04-29T23:23:54.803Z,10.40
2023-04-29T23:26:27.220Z,12.80
2023-04-29T23:28:56.077Z,12.00
2023-04-29T23:31:25.346Z,8.60
2023-04-29T23:33:56.090Z,11.20
2023-04-29T23:36:32.791Z,12.40
2023-04-29T23:39:07.746Z,13.20
2023-04-29T23:41:39.592Z,10.40
2023-04-29T23:44:08.813Z,9.00
2023-04-29T23:46:43.714Z,9.00
2023-04-29T23:49:14.367Z,10.00
2023-04-29T23:51:44.951Z,9.00
2023-04-29T23:54:16.825Z,4.40
2023-04-29T23:56:51.316Z,10.80
2023-04-29T23:59:22.210Z,13.40
